createdAt,value
2019-03-17T00:00:47.357Z,96976.70
2019-03-17T00:05:53.130Z,96971.95
2019-03-17T00:10:59.111Z,96981.36
2019-03-17T00:16:05.454Z,96995.23
2019-03-17T00:21:11.362Z,97010.49
2019-03-17T00:26:17.186Z,97026.95
2019-03-17T00:31:24.310Z,97045.58
2019-03-17T00:36:30.308Z,97050.94
2019-03-17T00:41:36.214Z,97062.06
2019-03-17T00:46:42.067Z,97062.16
2019-03-17T00:51:47.959Z,97055.03
2019-03-17T00:56:53.722Z,97063.86
2019-03-17T01:01:59.654Z,97072.14
2019-03-17T01:07:05.603Z,97077.52
2019-03-17T01:12:11.615Z,97096.09
2019-03-17T01:17:17.430Z,97112.02
2019-03-17T01:22:24.409Z,97132.77
2019-03-17T01:27:30.237Z,97132.52
2019-03-17T01:32:36.214Z,97138.09
2019-03-17T01:37:42.805Z,97134.64
2019-03-17T01:42:48.469Z,97154.49
2019-03-17T01:47:54.343Z,97153.73
2019-03-17T01:53:00.112Z,97155.87
2019-03-17T01:58:06.087Z,97166.56
2019-03-17T02:03:12.002Z,97165.72
2019-03-17T02:08:17.826Z,97197.64
2019-03-17T02:13:23.610Z,97212.22
2019-03-17T02:18:29.574Z,97216.97
2019-03-17T02:23:35.456Z,97211.49
2019-03-17T02:28:42.287Z,97216.21
2019-03-17T02:33:48.530Z,97225.05
2019-03-17T02:38:55.040Z,97235.59
2019-03-17T02:44:03.330Z,97239.30
2019-03-17T02:49:09.916Z,97242.91
2019-03-17T02:54:15.708Z,97259.81
2019-03-17T02:59:21.378Z,97263.73
2019-03-17T03:04:27.336Z,97267.77
2019-03-17T03:09:33.145Z,97268.84
2019-03-17T03:14:39.084Z,97286.00
2019-03-17T03:19:44.954Z,97286.34
2019-03-17T03:24:50.725Z,97283.39
2019-03-17T03:29:57.617Z,97294.77
2019-03-17T03:35:08.088Z,97300.55
2019-03-17T03:40:14.163Z,97303.94
2019-03-17T03:45:20.033Z,97322.67
2019-03-17T03:50:25.918Z,97304.79
2019-03-17T03:55:31.682Z,97291.97
2019-03-17T04:00:37.546Z,97281.95
2019-03-17T04:05:43.341Z,97296.01
2019-03-17T04:10:49.386Z,97305.31
2019-03-17T04:15:55.756Z,97306.34
2019-03-17T04:21:01.754Z,97310.78
2019-03-17T04:26:07.529Z,97311.06
2019-03-17T04:31:14.633Z,97308.73
2019-03-17T04:36:20.789Z,97315.38
2019-03-17T04:41:27.506Z,97327.09
2019-03-17T04:46:33.241Z,97346.91
2019-03-17T04:51:39.335Z,97340.55
2019-03-17T04:56:45.687Z,97353.61
2019-03-17T05:01:51.653Z,97355.25
2019-03-17T05:06:57.425Z,97365.58
2019-03-17T05:12:03.254Z,97362.92
2019-03-17T05:17:09.229Z,97371.28
2019-03-17T05:22:14.956Z,97378.69
2019-03-17T05:27:21.750Z,97375.36
2019-03-17T05:32:28.102Z,97376.45
2019-03-17T05:37:34.825Z,97377.43
2019-03-17T05:42:41.201Z,97392.41
2019-03-17T05:47:47.201Z,97392.26
2019-03-17T05:52:53.020Z,97395.17
2019-03-17T05:57:58.932Z,97386.12
2019-03-17T06:03:04.701Z,97404.89
2019-03-17T06:08:10.638Z,97403.09
2019-03-17T06:13:16.448Z,97410.67
2019-03-17T06:18:22.264Z,97410.92
2019-03-17T06:23:28.038Z,97411.35
2019-03-17T06:28:33.850Z,97412.13
2019-03-17T06:33:39.722Z,97421.02
2019-03-17T06:38:46.625Z,97428.38
2019-03-17T06:43:52.485Z,97438.19
2019-03-17T06:48:58.513Z,97440.58
2019-03-17T06:54:04.373Z,97443.77
2019-03-17T06:59:10.304Z,97451.70
2019-03-17T07:04:16.183Z,97448.08
2019-03-17T07:09:22.052Z,97469.94
2019-03-17T07:14:28.912Z,97467.34
2019-03-17T07:19:34.710Z,97467.87
2019-03-17T07:24:40.589Z,97465.78
2019-03-17T07:29:49.421Z,97466.41
2019-03-17T07:34:54.210Z,97481.19
2019-03-17T07:40:00.461Z,97483.58
2019-03-17T07:45:08.813Z,97492.55
2019-03-17T07:50:14.929Z,97499.33
2019-03-17T07:55:20.847Z,97500.37
2019-03-17T08:00:31.879Z,97497.11
2019-03-17T08:05:34.951Z,97514.30
2019-03-17T08:10:42.837Z,97521.75
2019-03-17T08:15:48.682Z,97539.03
2019-03-17T08:20:54.637Z,97539.77
2019-03-17T08:26:00.568Z,97532.34
2019-03-17T08:31:06.737Z,97540.66
2019-03-17T08:36:12.619Z,97560.67
2019-03-17T08:41:18.527Z,97551.48
2019-03-17T08:46:24.362Z,97552.50
2019-03-17T08:51:30.277Z,97559.42
2019-03-17T08:56:36.503Z,97569.57
2019-03-17T09:01:42.290Z,97568.09
2019-03-17T09:06:49.084Z,97579.55
2019-03-17T09:11:55.454Z,97592.13
2019-03-17T09:17:13.689Z,97605.18
2019-03-17T09:22:09.849Z,97602.95
2019-03-17T09:27:15.742Z,97612.43
2019-03-17T09:32:21.706Z,97605.66
2019-03-17T09:37:27.571Z,97598.08
2019-03-17T09:42:33.439Z,97602.53
2019-03-17T09:47:41.103Z,97588.26
2019-03-17T09:52:46.846Z,97620.28
2019-03-17T09:57:52.893Z,97631.17
2019-03-17T10:02:59.790Z,97632.38
2019-03-17T10:08:05.663Z,97625.10
2019-03-17T10:13:11.545Z,97626.73
2019-03-17T10:18:17.537Z,97634.57
2019-03-17T10:23:23.276Z,97616.83
2019-03-17T10:28:29.159Z,97662.83
2019-03-17T10:33:35.140Z,97676.19
2019-03-17T10:38:40.995Z,97682.55
2019-03-17T10:43:46.879Z,97697.28
2019-03-17T10:48:52.848Z,97715.68
2019-03-17T10:54:00.561Z,97715.54
2019-03-17T10:59:07.656Z,97716.56
2019-03-17T11:04:13.932Z,97706.91
2019-03-17T11:09:25.287Z,97701.36
2019-03-17T11:14:28.053Z,97700.33
2019-03-17T11:19:34.223Z,97702.39
2019-03-17T11:24:40.077Z,97695.20
2019-03-17T11:29:45.960Z,97695.62
2019-03-17T11:34:51.855Z,97691.95
2019-03-17T11:39:58.926Z,97684.16
2019-03-17T11:45:06.298Z,97682.75
2019-03-17T11:50:21.996Z,97673.39
2019-03-17T11:55:27.934Z,97673.31
2019-03-17T12:00:33.936Z,97664.18
2019-03-17T12:05:39.952Z,97645.42
2019-03-17T12:10:46.153Z,97632.52
2019-03-17T12:15:52.106Z,97621.03
2019-03-17T12:20:58.091Z,97603.46
2019-03-17T12:26:04.177Z,97602.16
2019-03-17T12:31:10.278Z,97615.87
2019-03-17T12:36:18.869Z,97631.48
2019-03-17T12:41:24.908Z,97613.19
2019-03-17T12:46:30.730Z,97618.04
2019-03-17T12:51:36.798Z,97630.91
2019-03-17T12:56:42.671Z,97610.48
2019-03-17T13:01:48.623Z,97547.52
2019-03-17T13:06:54.673Z,97602.61
2019-03-17T13:12:00.667Z,97528.83
2019-03-17T13:17:06.790Z,97469.30
2019-03-17T13:22:12.852Z,97460.16
2019-03-17T13:27:18.775Z,97547.17
2019-03-17T13:32:24.709Z,97563.67
2019-03-17T13:37:30.649Z,97600.08
2019-03-17T13:42:38.018Z,97628.70
2019-03-17T13:47:44.150Z,97614.84
2019-03-17T13:52:50.255Z,97652.49
2019-03-17T13:57:59.084Z,97674.44
2019-03-17T14:03:05.045Z,97674.72
2019-03-17T14:08:10.905Z,97682.75
2019-03-17T14:13:17.791Z,97693.39
2019-03-17T14:18:23.632Z,97688.94
2019-03-17T14:23:29.961Z,97675.88
2019-03-17T14:28:37.236Z,97687.88
2019-03-17T14:33:43.231Z,97717.73
2019-03-17T14:38:49.196Z,97700.44
2019-03-17T14:43:56.710Z,97713.62
2019-03-17T14:49:02.718Z,97726.32
2019-03-17T14:54:08.692Z,97745.03
2019-03-17T14:59:15.583Z,97744.77
2019-03-17T15:04:21.451Z,97747.05
2019-03-17T15:09:27.380Z,97756.15
2019-03-17T15:14:33.390Z,97773.52
2019-03-17T15:19:39.860Z,97774.95
2019-03-17T15:24:45.834Z,97780.23
2019-03-17T15:29:51.898Z,97751.68
2019-03-17T15:34:57.978Z,97763.11
2019-03-17T15:40:04.769Z,97814.41
2019-03-17T15:45:15.387Z,97796.88
2019-03-17T15:50:26.185Z,97781.31
2019-03-17T15:55:32.033Z,97752.04
2019-03-17T16:00:38.074Z,97737.68
2019-03-17T16:05:44.068Z,97733.89
2019-03-17T16:10:49.929Z,97761.05
2019-03-17T16:15:55.914Z,97758.16
2019-03-17T16:21:01.821Z,97751.70
2019-03-17T16:26:07.906Z,97752.33
2019-03-17T16:31:13.856Z,97778.75
2019-03-17T16:36:19.742Z,97803.51
2019-03-17T16:41:25.705Z,97807.07
2019-03-17T16:46:31.692Z,97786.41
2019-03-17T16:51:37.665Z,97839.31
2019-03-17T16:56:43.920Z,97832.52
2019-03-17T17:01:50.113Z,97839.59
2019-03-17T17:06:56.672Z,97839.30
2019-03-17T17:12:02.653Z,97851.87
2019-03-17T17:17:08.676Z,97844.95
2019-03-17T17:22:14.813Z,97866.61
2019-03-17T17:27:20.865Z,97893.30
2019-03-17T17:32:26.902Z,97898.70
2019-03-17T17:37:32.952Z,97900.69
2019-03-17T17:42:39.790Z,97894.56
2019-03-17T17:47:45.809Z,97936.22
2019-03-17T17:52:51.590Z,97921.77
2019-03-17T17:57:57.567Z,97936.02
2019-03-17T18:03:03.706Z,97959.97
2019-03-17T18:08:09.658Z,97967.64
2019-03-17T18:13:15.557Z,97956.34
2019-03-17T18:18:21.415Z,97973.75
2019-03-17T18:23:27.378Z,97968.23
2019-03-17T18:28:33.467Z,97975.31
2019-03-17T18:33:39.397Z,97998.00
2019-03-17T18:38:45.441Z,97995.12
2019-03-17T18:43:51.910Z,98027.52
2019-03-17T18:48:58.662Z,98047.98
2019-03-17T18:54:05.606Z,98045.97
2019-03-17T18:59:11.839Z,98031.38
2019-03-17T19:04:17.918Z,98065.77
2019-03-17T19:09:24.454Z,98073.89
2019-03-17T19:14:30.362Z,98066.94
2019-03-17T19:19:36.190Z,98049.39
2019-03-17T19:24:42.044Z,98047.77
2019-03-17T19:29:48.148Z,98047.77
2019-03-17T19:34:54.398Z,98061.66
2019-03-17T19:40:01.427Z,98065.97
2019-03-17T19:45:08.527Z,98106.21
2019-03-17T19:50:19.001Z,98145.62
2019-03-17T19:55:24.860Z,98164.66
2019-03-17T20:00:30.732Z,98178.41
2019-03-17T20:05:36.696Z,98178.41
2019-03-17T20:10:42.619Z,98197.13
2019-03-17T20:15:48.672Z,98208.13
2019-03-17T20:20:54.645Z,98193.73
2019-03-17T20:26:00.652Z,98214.38
2019-03-17T20:31:06.767Z,98212.45
2019-03-17T20:36:12.665Z,98218.05
2019-03-17T20:41:18.649Z,98232.24
2019-03-17T20:46:24.649Z,98226.79
2019-03-17T20:51:30.692Z,98240.97
2019-03-17T20:56:37.425Z,98239.63
2019-03-17T21:01:43.691Z,98239.63
2019-03-17T21:06:49.586Z,98247.27
2019-03-17T21:11:55.794Z,98258.52
2019-03-17T21:17:01.855Z,98261.80
2019-03-17T21:22:08.011Z,98270.84
2019-03-17T21:27:14.029Z,98287.58
2019-03-17T21:32:19.878Z,98283.69
2019-03-17T21:37:25.793Z,98259.73
2019-03-17T21:42:31.735Z,98267.45
2019-03-17T21:47:37.648Z,98316.94
2019-03-17T21:52:43.396Z,98324.80
2019-03-17T21:57:49.440Z,98335.69
2019-03-17T22:02:56.542Z,98351.98
2019-03-17T22:08:02.622Z,98362.69
2019-03-17T22:13:09.511Z,98358.22
2019-03-17T22:18:15.611Z,98372.71
2019-03-17T22:23:23.232Z,98393.15
2019-03-17T22:28:29.181Z,98397.94
2019-03-17T22:33:35.062Z,98395.79
2019-03-17T22:38:41.042Z,98406.99
2019-03-17T22:43:46.925Z,98392.53
2019-03-17T22:48:52.697Z,98400.97
2019-03-17T22:53:58.482Z,98416.20
2019-03-17T22:59:04.463Z,98420.39
2019-03-17T23:04:10.374Z,98423.91
2019-03-17T23:09:16.327Z,98412.11
2019-03-17T23:14:22.324Z,98411.60
2019-03-17T23:19:28.295Z,98421.27
2019-03-17T23:24:34.263Z,98436.06
2019-03-17T23:29:41.028Z,98432.36
2019-03-17T23:34:47.286Z,98420.97
2019-03-17T23:39:53.145Z,98425.95
2019-03-17T23:44:59.103Z,98433.68
2019-03-17T23:50:09.425Z,98426.01
2019-03-17T23:55:15.753Z,98437.78
